sensor_id;sensor_type;location;lat;lon;timestamp;pressure;altitude;pressure_sealevel;temperature;humidity
77588;BME280;66745;49.716;17.158;2023-02-01T00:01:05;98703.78;;;23.10;33.63
77588;BME280;66745;49.716;17.158;2023-02-01T00:04:05;98697.41;;;23.09;33.25
77588;BME280;66745;49.716;17.158;2023-02-01T00:07:06;98701.50;;;23.08;33.00
77588;BME280;66745;49.716;17.158;2023-02-01T00:10:06;98700.97;;;23.10;32.84
77588;BME280;66745;49.716;17.158;2023-02-01T00:13:07;98698.69;;;23.08;33.28
77588;BME280;66745;49.716;17.158;2023-02-01T00:16:09;98700.72;;;23.08;33.59
77588;BME280;66745;49.716;17.158;2023-02-01T00:19:11;98703.53;;;23.08;32.91
77588;BME280;66745;49.716;17.158;2023-02-01T00:22:12;98702.03;;;23.07;33.42
77588;BME280;66745;49.716;17.158;2023-02-01T00:25:12;98704.31;;;23.08;33.39
77588;BME280;66745;49.716;17.158;2023-02-01T00:28:12;98703.03;;;23.09;33.01
77588;BME280;66745;49.716;17.158;2023-02-01T00:31:14;98714.25;;;23.09;33.32
77588;BME280;66745;49.716;17.158;2023-02-01T00:34:15;98721.88;;;23.09;33.63
77588;BME280;66745;49.716;17.158;2023-02-01T00:37:15;98708.63;;;23.09;33.63
77588;BME280;66745;49.716;17.158;2023-02-01T00:40:16;98700.72;;;23.08;32.91
77588;BME280;66745;49.716;17.158;2023-02-01T00:43:16;98708.38;;;23.07;33.20
77588;BME280;66745;49.716;17.158;2023-02-01T00:46:17;98707.41;;;23.05;33.65
77588;BME280;66745;49.716;17.158;2023-02-01T00:49:18;98718.38;;;23.03;33.19
77588;BME280;66745;49.716;17.158;2023-02-01T00:52:18;98728.84;;;23.02;33.61
77588;BME280;66745;49.716;17.158;2023-02-01T00:55:19;98734.22;;;23.00;33.60
77588;BME280;66745;49.716;17.158;2023-02-01T00:58:19;98739.59;;;22.98;33.38
77588;BME280;66745;49.716;17.158;2023-02-01T01:01:20;98747.75;;;22.96;33.46
77588;BME280;66745;49.716;17.158;2023-02-01T01:04:21;98778.63;;;22.91;32.87
77588;BME280;66745;49.716;17.158;2023-02-01T01:07:21;98787.09;;;22.85;32.82
77588;BME280;66745;49.716;17.158;2023-02-01T01:10:22;98768.53;;;22.82;33.13
77588;BME280;66745;49.716;17.158;2023-02-01T01:13:22;98755.28;;;22.83;33.12
77588;BME280;66745;49.716;17.158;2023-02-01T01:16:23;98777.72;;;22.83;33.14
77588;BME280;66745;49.716;17.158;2023-02-01T01:19:24;98776.72;;;22.80;32.84
77588;BME280;66745;49.716;17.158;2023-02-01T01:22:25;98761.69;;;22.78;32.18
77588;BME280;66745;49.716;17.158;2023-02-01T01:25:25;98756.63;;;22.76;32.43
77588;BME280;66745;49.716;17.158;2023-02-01T01:28:25;98748.22;;;22.76;32.68
77588;BME280;66745;49.716;17.158;2023-02-01T01:31:26;98744.88;;;22.78;33.21
77588;BME280;66745;49.716;17.158;2023-02-01T01:34:26;98732.19;;;22.77;32.36
77588;BME280;66745;49.716;17.158;2023-02-01T01:37:27;98738.00;;;22.79;32.94
77588;BME280;66745;49.716;17.158;2023-02-01T01:40:28;98744.16;;;22.77;32.66
77588;BME280;66745;49.716;17.158;2023-02-01T01:43:45;98747.69;;;22.78;32.91
77588;BME280;66745;49.716;17.158;2023-02-01T01:46:46;98742.84;;;22.78;32.82
77588;BME280;66745;49.716;17.158;2023-02-01T01:49:46;98740.03;;;22.78;32.96
77588;BME280;66745;49.716;17.158;2023-02-01T01:52:47;98738.56;;;22.77;32.87
77588;BME280;66745;49.716;17.158;2023-02-01T01:55:49;98739.28;;;22.78;32.89
77588;BME280;66745;49.716;17.158;2023-02-01T01:58:51;98744.16;;;22.77;32.87
77588;BME280;66745;49.716;17.158;2023-02-01T02:01:52;98744.88;;;22.78;32.66
77588;BME280;66745;49.716;17.158;2023-02-01T02:04:52;98746.19;;;22.77;32.71
77588;BME280;66745;49.716;17.158;2023-02-01T02:07:53;98727.84;;;22.76;32.52
77588;BME280;66745;49.716;17.158;2023-02-01T02:10:56;98739.06;;;22.76;32.57
77588;BME280;66745;49.716;17.158;2023-02-01T02:14:00;98740.34;;;22.75;33.01
77588;BME280;66745;49.716;17.158;2023-02-01T02:39:53;98744.22;;;22.72;32.12
77588;BME280;66745;49.716;17.158;2023-02-01T02:42:58;98747.00;;;22.72;32.71
77588;BME280;66745;49.716;17.158;2023-02-01T02:46:21;98746.25;;;22.71;33.08
77588;BME280;66745;49.716;17.158;2023-02-01T02:49:43;98742.69;;;22.71;33.05
77588;BME280;66745;49.716;17.158;2023-02-01T02:53:13;98743.44;;;22.71;32.68
77588;BME280;66745;49.716;17.158;2023-02-01T02:56:34;98748.28;;;22.71;32.64
77588;BME280;66745;49.716;17.158;2023-02-01T02:59:53;98750.31;;;22.70;32.34
77588;BME280;66745;49.716;17.158;2023-02-01T03:03:14;98753.66;;;22.68;32.53
77588;BME280;66745;49.716;17.158;2023-02-01T03:06:33;98751.59;;;22.69;32.53
77588;BME280;66745;49.716;17.158;2023-02-01T03:09:34;98748.06;;;22.68;33.30
77588;BME280;66745;49.716;17.158;2023-02-01T03:12:37;98740.94;;;22.67;32.89
77588;BME280;66745;49.716;17.158;2023-02-01T03:19:02;98757.75;;;22.67;33.06
77588;BME280;66745;49.716;17.158;2023-02-01T03:22:07;98751.38;;;22.67;32.86
77588;BME280;66745;49.716;17.158;2023-02-01T03:25:15;98752.66;;;22.66;32.14
77588;BME280;66745;49.716;17.158;2023-02-01T03:28:18;98749.84;;;22.66;32.60
77588;BME280;66745;49.716;17.158;2023-02-01T03:31:22;98758.50;;;22.68;32.96
77588;BME280;66745;49.716;17.158;2023-02-01T03:34:22;98750.09;;;22.68;32.89
77588;BME280;66745;49.716;17.158;2023-02-01T03:37:24;98745.00;;;22.66;32.63
77588;BME280;66745;49.716;17.158;2023-02-01T03:40:26;98747.03;;;22.66;32.54
77588;BME280;66745;49.716;17.158;2023-02-01T03:43:29;98750.38;;;22.64;32.17
77588;BME280;66745;49.716;17.158;2023-02-01T03:46:37;98760.78;;;22.64;32.99
77588;BME280;66745;49.716;17.158;2023-02-01T03:49:40;98758.00;;;22.64;32.62
77588;BME280;66745;49.716;17.158;2023-02-01T03:52:44;98748.59;;;22.61;32.70
77588;BME280;66745;49.716;17.158;2023-02-01T03:55:45;98750.63;;;22.61;32.29
77588;BME280;66745;49.716;17.158;2023-02-01T03:58:45;98777.13;;;22.60;32.74
77588;BME280;66745;49.716;17.158;2023-02-01T04:01:58;98778.66;;;22.61;32.46
77588;BME280;66745;49.716;17.158;2023-02-01T04:04:59;98772.81;;;22.59;32.12
77588;BME280;66745;49.716;17.158;2023-02-01T04:08:00;98760.84;;;22.58;31.64
77588;BME280;66745;49.716;17.158;2023-02-01T04:11:00;98745.59;;;22.54;31.66
77588;BME280;66745;49.716;17.158;2023-02-01T04:14:00;98752.25;;;22.51;32.09
77588;BME280;66745;49.716;17.158;2023-02-01T04:17:04;98748.19;;;22.52;32.56
77588;BME280;66745;49.716;17.158;2023-02-01T04:20:04;98736.97;;;22.52;32.04
77588;BME280;66745;49.716;17.158;2023-02-01T04:23:05;98746.66;;;22.51;31.45
77588;BME280;66745;49.716;17.158;2023-02-01T04:26:05;98745.16;;;22.50;31.93
77588;BME280;66745;49.716;17.158;2023-02-01T04:29:05;98756.34;;;22.50;32.00
77588;BME280;66745;49.716;17.158;2023-02-01T04:32:06;98758.38;;;22.49;31.83
77588;BME280;66745;49.716;17.158;2023-02-01T04:35:06;98752.56;;;22.47;31.63
77588;BME280;66745;49.716;17.158;2023-02-01T04:38:07;98763.00;;;22.47;31.47
77588;BME280;66745;49.716;17.158;2023-02-01T04:41:07;98758.16;;;22.47;31.49
77588;BME280;66745;49.716;17.158;2023-02-01T04:44:10;98763.00;;;22.47;32.47
77588;BME280;66745;49.716;17.158;2023-02-01T04:47:13;98753.84;;;22.46;31.99
77588;BME280;66745;49.716;17.158;2023-02-01T04:50:15;98752.56;;;22.47;31.43
77588;BME280;66745;49.716;17.158;2023-02-01T04:53:15;98756.84;;;22.48;32.02
77588;BME280;66745;49.716;17.158;2023-02-01T04:56:16;98758.91;;;22.48;31.88
77588;BME280;66745;49.716;17.158;2023-02-01T04:59:16;98758.16;;;22.47;32.10
77588;BME280;66745;49.716;17.158;2023-02-01T05:02:16;98757.41;;;22.47;32.53
77588;BME280;66745;49.716;17.158;2023-02-01T05:05:17;98756.63;;;22.46;31.96
77588;BME280;66745;49.716;17.158;2023-02-01T05:08:17;98761.47;;;22.46;32.04
77588;BME280;66745;49.716;17.158;2023-02-01T05:11:17;98757.91;;;22.45;32.53
77588;BME280;66745;49.716;17.158;2023-02-01T05:14:36;98755.09;;;22.45;31.97
77588;BME280;66745;49.716;17.158;2023-02-01T05:17:37;98757.16;;;22.45;31.50
77588;BME280;66745;49.716;17.158;2023-02-01T05:20:37;98753.59;;;22.44;32.22
77588;BME280;66745;49.716;17.158;2023-02-01T05:23:38;98759.22;;;22.44;31.64
77588;BME280;66745;49.716;17.158;2023-02-01T05:26:58;98755.63;;;22.44;32.40
77588;BME280;66745;49.716;17.158;2023-02-01T05:29:58;98754.13;;;22.43;31.89
77588;BME280;66745;49.716;17.158;2023-02-01T05:32:58;98762.50;;;22.43;31.91
77588;BME280;66745;49.716;17.158;2023-02-01T05:35:59;98765.31;;;22.43;31.53
77588;BME280;66745;49.716;17.158;2023-02-01T05:38:59;98758.22;;;22.42;31.94
77588;BME280;66745;49.716;17.158;2023-02-01T05:41:59;98755.41;;;22.42;31.69
77588;BME280;66745;49.716;17.158;2023-02-01T05:45:00;98750.31;;;22.40;32.23
77588;BME280;66745;49.716;17.158;2023-02-01T05:48:00;98746.75;;;22.40;31.68
77588;BME280;66745;49.716;17.158;2023-02-01T05:51:00;98743.19;;;22.39;31.52
77588;BME280;66745;49.716;17.158;2023-02-01T05:54:01;98734.06;;;22.39;31.96
77588;BME280;66745;49.716;17.158;2023-02-01T05:57:01;98733.31;;;22.38;31.66
77588;BME280;66745;49.716;17.158;2023-02-01T06:00:03;98722.59;;;22.37;31.70
77588;BME280;66745;49.716;17.158;2023-02-01T06:03:03;98719.03;;;22.36;32.41
77588;BME280;66745;49.716;17.158;2023-02-01T06:06:04;98721.84;;;22.36;31.49
77588;BME280;66745;49.716;17.158;2023-02-01T06:09:04;98724.66;;;22.36;31.93
77588;BME280;66745;49.716;17.158;2023-02-01T06:12:05;98724.13;;;22.38;32.67
77588;BME280;66745;49.716;17.158;2023-02-01T06:15:05;98721.28;;;22.43;34.10
77588;BME280;66745;49.716;17.158;2023-02-01T06:18:06;98711.78;;;22.52;33.73
77588;BME280;66745;49.716;17.158;2023-02-01T06:21:06;98713.16;;;22.40;33.93
77588;BME280;66745;49.716;17.158;2023-02-01T06:24:07;98712.22;;;22.32;32.67
77588;BME280;66745;49.716;17.158;2023-02-01T06:27:08;98711.25;;;22.29;33.95
77588;BME280;66745;49.716;17.158;2023-02-01T06:30:09;98705.66;;;22.29;33.48
77588;BME280;66745;49.716;17.158;2023-02-01T06:33:10;98708.66;;;22.31;33.88
77588;BME280;66745;49.716;17.158;2023-02-01T06:36:10;98700.50;;;22.33;33.31
77588;BME280;66745;49.716;17.158;2023-02-01T06:39:12;98696.44;;;22.34;33.28
77588;BME280;66745;49.716;17.158;2023-02-01T06:42:15;98694.38;;;22.35;33.23
77588;BME280;66745;49.716;17.158;2023-02-01T06:45:16;98697.19;;;22.35;33.05
77588;BME280;66745;49.716;17.158;2023-02-01T06:48:16;98704.81;;;22.34;32.79
77588;BME280;66745;49.716;17.158;2023-02-01T06:51:21;98698.03;;;22.24;33.02
77588;BME280;66745;49.716;17.158;2023-02-01T06:54:22;98688.38;;;22.25;33.22
77588;BME280;66745;49.716;17.158;2023-02-01T06:57:22;98691.66;;;22.29;33.22
77588;BME280;66745;49.716;17.158;2023-02-01T07:00:22;98691.38;;;22.33;33.56
77588;BME280;66745;49.716;17.158;2023-02-01T07:03:23;98686.75;;;22.35;34.30
77588;BME280;66745;49.716;17.158;2023-02-01T07:06:23;98691.06;;;22.36;33.58
77588;BME280;66745;49.716;17.158;2023-02-01T07:09:23;98686.97;;;22.37;33.95
77588;BME280;66745;49.716;17.158;2023-02-01T07:12:24;98693.34;;;22.38;33.99
77588;BME280;66745;49.716;17.158;2023-02-01T07:15:24;98689.03;;;22.37;33.86
77588;BME280;66745;49.716;17.158;2023-02-01T07:18:25;98696.16;;;22.38;33.79
77588;BME280;66745;49.716;17.158;2023-02-01T07:21:26;98693.34;;;22.38;33.84
77588;BME280;66745;49.716;17.158;2023-02-01T07:24:27;98696.91;;;22.38;34.09
77588;BME280;66745;49.716;17.158;2023-02-01T07:27:28;98696.91;;;22.38;33.53
77588;BME280;66745;49.716;17.158;2023-02-01T07:30:28;98693.34;;;22.38;34.08
77588;BME280;66745;49.716;17.158;2023-02-01T07:33:28;98701.75;;;22.38;34.14
77588;BME280;66745;49.716;17.158;2023-02-01T07:36:29;98697.41;;;22.37;33.76
77588;BME280;66745;49.716;17.158;2023-02-01T07:39:29;98689.03;;;22.37;33.57
77588;BME280;66745;49.716;17.158;2023-02-01T07:42:31;98691.06;;;22.36;33.55
77588;BME280;66745;49.716;17.158;2023-02-01T07:45:32;98690.53;;;22.38;33.98
77588;BME280;66745;49.716;17.158;2023-02-01T07:48:32;98687.75;;;22.38;33.71
77588;BME280;66745;49.716;17.158;2023-02-01T07:51:34;98687.75;;;22.38;33.62
77588;BME280;66745;49.716;17.158;2023-02-01T07:54:35;98680.13;;;22.38;34.11
77588;BME280;66745;49.716;17.158;2023-02-01T07:57:36;98674.25;;;22.36;34.56
77588;BME280;66745;49.716;17.158;2023-02-01T08:00:36;98686.00;;;22.35;34.05
77588;BME280;66745;49.716;17.158;2023-02-01T08:03:58;98674.78;;;22.35;34.92
77588;BME280;66745;49.716;17.158;2023-02-01T08:06:59;98671.25;;;22.34;34.39
77588;BME280;66745;49.716;17.158;2023-02-01T08:09:59;98671.78;;;22.33;33.72
77588;BME280;66745;49.716;17.158;2023-02-01T08:13:00;98672.28;;;22.31;34.09
77588;BME280;66745;49.716;17.158;2023-02-01T08:16:01;98677.13;;;22.31;34.74
77588;BME280;66745;49.716;17.158;2023-02-01T08:19:02;98674.31;;;22.31;33.85
77588;BME280;66745;49.716;17.158;2023-02-01T08:22:03;98677.13;;;22.31;33.76
77588;BME280;66745;49.716;17.158;2023-02-01T08:25:06;98674.31;;;22.31;33.63
77588;BME280;66745;49.716;17.158;2023-02-01T08:28:07;98677.66;;;22.29;34.55
77588;BME280;66745;49.716;17.158;2023-02-01T08:31:08;98673.03;;;22.32;33.69
77588;BME280;66745;49.716;17.158;2023-02-01T08:34:09;98666.41;;;22.35;34.71
77588;BME280;66745;49.716;17.158;2023-02-01T08:37:09;98665.88;;;22.36;34.40
77588;BME280;66745;49.716;17.158;2023-02-01T08:40:10;98665.34;;;22.38;33.95
77588;BME280;66745;49.716;17.158;2023-02-01T08:43:10;98672.69;;;22.41;33.83
77588;BME280;66745;49.716;17.158;2023-02-01T08:46:11;98664.53;;;22.43;34.25
77588;BME280;66745;49.716;17.158;2023-02-01T08:49:11;98670.13;;;22.43;34.28
77588;BME280;66745;49.716;17.158;2023-02-01T08:52:11;98675.72;;;22.43;33.86
77588;BME280;66745;49.716;17.158;2023-02-01T08:55:12;98661.22;;;22.44;34.55
77588;BME280;66745;49.716;17.158;2023-02-01T08:58:13;98668.09;;;22.43;34.06
77588;BME280;66745;49.716;17.158;2023-02-01T09:01:15;98674.44;;;22.44;34.76
77588;BME280;66745;49.716;17.158;2023-02-01T09:04:16;98670.38;;;22.45;35.21
77588;BME280;66745;49.716;17.158;2023-02-01T09:07:17;98669.63;;;22.44;34.27
77588;BME280;66745;49.716;17.158;2023-02-01T09:10:18;98676.19;;;22.47;34.43
77588;BME280;66745;49.716;17.158;2023-02-01T09:13:18;98677.47;;;22.46;35.49
77588;BME280;66745;49.716;17.158;2023-02-01T09:16:18;98671.88;;;22.46;34.37
77588;BME280;66745;49.716;17.158;2023-02-01T09:19:19;98663.47;;;22.46;35.30
77588;BME280;66745;49.716;17.158;2023-02-01T09:22:19;98669.06;;;22.46;34.95
77588;BME280;66745;49.716;17.158;2023-02-01T09:25:20;98665.00;;;22.47;34.65
77588;BME280;66745;49.716;17.158;2023-02-01T09:28:21;98662.97;;;22.47;35.40
77588;BME280;66745;49.716;17.158;2023-02-01T09:31:21;98667.44;;;22.32;35.56
77588;BME280;66745;49.716;17.158;2023-02-01T09:34:21;98659.56;;;22.30;35.28
77588;BME280;66745;49.716;17.158;2023-02-01T09:37:22;98667.22;;;22.30;35.07
77588;BME280;66745;49.716;17.158;2023-02-01T09:40:22;98670.25;;;22.32;34.78
77588;BME280;66745;49.716;17.158;2023-02-01T09:43:26;98671.78;;;22.33;35.88
77588;BME280;66745;49.716;17.158;2023-02-01T09:46:28;98666.91;;;22.33;35.92
77588;BME280;66745;49.716;17.158;2023-02-01T09:49:30;98655.72;;;22.33;35.82
77588;BME280;66745;49.716;17.158;2023-02-01T09:52:32;98671.25;;;22.34;34.94
77588;BME280;66745;49.716;17.158;2023-02-01T09:55:39;98660.03;;;22.34;34.91
77588;BME280;66745;49.716;17.158;2023-02-01T10:01:43;98666.19;;;22.33;34.82
77588;BME280;66745;49.716;17.158;2023-02-01T10:04:44;98664.66;;;22.32;34.93
77588;BME280;66745;49.716;17.158;2023-02-01T10:10:51;98657.31;;;22.29;35.35
77588;BME280;66745;49.716;17.158;2023-02-01T10:14:00;98671.28;;;22.29;35.04
77588;BME280;66745;49.716;17.158;2023-02-01T10:30:05;98661.16;;;22.26;35.06
77588;BME280;66745;49.716;17.158;2023-02-01T10:36:21;98655.31;;;22.24;35.20
77588;BME280;66745;49.716;17.158;2023-02-01T10:39:23;98651.00;;;22.23;35.56
77588;BME280;66745;49.716;17.158;2023-02-01T10:42:28;98651.06;;;22.17;35.66
77588;BME280;66745;49.716;17.158;2023-02-01T10:45:29;98644.63;;;22.22;36.25
77588;BME280;66745;49.716;17.158;2023-02-01T10:48:30;98638.97;;;22.28;36.77
77588;BME280;66745;49.716;17.158;2023-02-01T10:51:53;98643.03;;;22.32;37.04
77588;BME280;66745;49.716;17.158;2023-02-01T10:54:52;98642.72;;;22.11;35.27
77588;BME280;66745;49.716;17.158;2023-02-01T10:58:00;98648.56;;;21.43;30.62
77588;BME280;66745;49.716;17.158;2023-02-01T11:01:02;98648.69;;;21.21;33.61
77588;BME280;66745;49.716;17.158;2023-02-01T11:04:04;98651.13;;;21.35;35.43
77588;BME280;66745;49.716;17.158;2023-02-01T11:07:13;98638.34;;;21.51;36.63
77588;BME280;66745;49.716;17.158;2023-02-01T11:10:36;98635.72;;;21.64;36.48
77588;BME280;66745;49.716;17.158;2023-02-01T11:13:37;98634.00;;;21.55;35.74
77588;BME280;66745;49.716;17.158;2023-02-01T11:16:38;98623.16;;;21.76;36.40
77588;BME280;66745;49.716;17.158;2023-02-01T11:19:39;98614.16;;;21.89;35.82
77588;BME280;66745;49.716;17.158;2023-02-01T11:22:47;98622.47;;;22.00;36.39
77588;BME280;66745;49.716;17.158;2023-02-01T11:29:02;98612.69;;;22.12;36.46
77588;BME280;66745;49.716;17.158;2023-02-01T11:32:03;98609.59;;;22.15;36.25
77588;BME280;66745;49.716;17.158;2023-02-01T11:35:05;98608.53;;;22.19;36.78
77588;BME280;66745;49.716;17.158;2023-02-01T11:41:26;98604.47;;;22.20;35.89
77588;BME280;66745;49.716;17.158;2023-02-01T11:47:39;98602.66;;;22.22;35.88
77588;BME280;66745;49.716;17.158;2023-02-01T12:00:14;98580.88;;;21.55;36.60
77588;BME280;66745;49.716;17.158;2023-02-01T12:06:32;98580.09;;;21.90;37.10
77588;BME280;66745;49.716;17.158;2023-02-01T12:16:22;98545.78;;;22.14;35.53
77588;BME280;66745;49.716;17.158;2023-02-01T12:19:51;98545.94;;;22.22;35.49
77588;BME280;66745;49.716;17.158;2023-02-01T12:38:54;98523.50;;;22.46;37.25
77588;BME280;66745;49.716;17.158;2023-02-01T12:51:25;98502.47;;;22.58;36.21
77588;BME280;66745;49.716;17.158;2023-02-01T12:54:42;98507.22;;;22.63;36.91
77588;BME280;66745;49.716;17.158;2023-02-01T13:01:17;98483.75;;;22.72;36.91
77588;BME280;66745;49.716;17.158;2023-02-01T13:04:23;98495.38;;;22.76;37.04
77588;BME280;66745;49.716;17.158;2023-02-01T13:07:26;98487.97;;;22.78;36.02
77588;BME280;66745;49.716;17.158;2023-02-01T13:10:33;98472.88;;;22.81;36.53
77588;BME280;66745;49.716;17.158;2023-02-01T13:13:39;98469.56;;;22.83;36.41
77588;BME280;66745;49.716;17.158;2023-02-01T13:17:02;98478.94;;;22.85;36.29
77588;BME280;66745;49.716;17.158;2023-02-01T13:23:05;98485.75;;;22.90;35.65
77588;BME280;66745;49.716;17.158;2023-02-01T13:26:08;98486.00;;;22.92;36.91
77588;BME280;66745;49.716;17.158;2023-02-01T13:29:09;98482.63;;;22.93;36.76
77588;BME280;66745;49.716;17.158;2023-02-01T13:41:33;98480.00;;;23.01;36.66
77588;BME280;66745;49.716;17.158;2023-02-01T13:44:41;98486.31;;;23.01;36.29
77588;BME280;66745;49.716;17.158;2023-02-01T13:47:43;98483.78;;;23.03;36.10
77588;BME280;66745;49.716;17.158;2023-02-01T13:50:48;98485.06;;;23.02;35.89
77588;BME280;66745;49.716;17.158;2023-02-01T13:53:49;98482.25;;;23.02;35.59
77588;BME280;66745;49.716;17.158;2023-02-01T13:56:50;98470.28;;;23.02;35.52
77588;BME280;66745;49.716;17.158;2023-02-01T13:59:51;98487.84;;;23.02;35.76
77588;BME280;66745;49.716;17.158;2023-02-01T14:03:02;98492.19;;;23.03;35.12
77588;BME280;66745;49.716;17.158;2023-02-01T14:06:14;98488.06;;;23.04;35.61
77588;BME280;66745;49.716;17.158;2023-02-01T14:15:35;98502.53;;;23.08;34.78
77588;BME280;66745;49.716;17.158;2023-02-01T14:21:50;98505.56;;;23.10;35.04
77588;BME280;66745;49.716;17.158;2023-02-01T14:24:58;98497.38;;;23.12;34.75
77588;BME280;66745;49.716;17.158;2023-02-01T14:27:59;98508.81;;;23.14;34.96
77588;BME280;66745;49.716;17.158;2023-02-01T14:30:59;98512.38;;;23.15;34.60
77588;BME280;66745;49.716;17.158;2023-02-01T14:34:01;98505.69;;;23.18;35.07
77588;BME280;66745;49.716;17.158;2023-02-01T14:37:06;98499.34;;;23.17;34.48
77588;BME280;66745;49.716;17.158;2023-02-01T14:43:13;98519.94;;;23.20;35.58
77588;BME280;66745;49.716;17.158;2023-02-01T14:46:13;98517.38;;;23.22;35.13
77588;BME280;66745;49.716;17.158;2023-02-01T14:49:14;98528.56;;;23.22;35.40
77588;BME280;66745;49.716;17.158;2023-02-01T14:52:16;98533.63;;;23.23;35.62
77588;BME280;66745;49.716;17.158;2023-02-01T14:55:18;98545.81;;;23.26;35.16
77588;BME280;66745;49.716;17.158;2023-02-01T15:01:28;98553.94;;;23.30;35.53
77588;BME280;66745;49.716;17.158;2023-02-01T15:04:30;98559.00;;;23.31;35.09
77588;BME280;66745;49.716;17.158;2023-02-01T15:07:40;98564.06;;;23.33;35.22
77588;BME280;66745;49.716;17.158;2023-02-01T15:10:42;98562.47;;;23.37;35.87
77588;BME280;66745;49.716;17.158;2023-02-01T15:13:50;98569.59;;;23.38;35.60
77588;BME280;66745;49.716;17.158;2023-02-01T15:16:54;98570.38;;;23.39;36.30
77588;BME280;66745;49.716;17.158;2023-02-01T15:19:56;98561.72;;;23.37;36.34
77588;BME280;66745;49.716;17.158;2023-02-01T15:22:57;98566.41;;;23.29;30.04
77588;BME280;66745;49.716;17.158;2023-02-01T15:25:58;98568.91;;;22.39;33.98
77588;BME280;66745;49.716;17.158;2023-02-01T15:28:59;98575.28;;;22.15;29.09
77588;BME280;66745;49.716;17.158;2023-02-01T15:31:59;98579.88;;;21.88;32.16
77588;BME280;66745;49.716;17.158;2023-02-01T15:35:00;98567.75;;;22.04;32.08
77588;BME280;66745;49.716;17.158;2023-02-01T15:38:24;98573.63;;;22.25;32.93
77588;BME280;66745;49.716;17.158;2023-02-01T15:41:29;98583.81;;;22.47;32.76
77588;BME280;66745;49.716;17.158;2023-02-01T15:44:40;98570.38;;;22.64;33.45
77588;BME280;66745;49.716;17.158;2023-02-01T15:47:41;98572.44;;;22.82;33.25
77588;BME280;66745;49.716;17.158;2023-02-01T15:50:46;98566.94;;;22.95;32.58
77588;BME280;66745;49.716;17.158;2023-02-01T15:53:47;98567.28;;;23.05;32.80
77588;BME280;66745;49.716;17.158;2023-02-01T15:56:49;98559.03;;;23.12;32.94
77588;BME280;66745;49.716;17.158;2023-02-01T15:59:55;98563.03;;;23.17;32.41
77588;BME280;66745;49.716;17.158;2023-02-01T16:02:58;98567.56;;;23.20;32.41
77588;BME280;66745;49.716;17.158;2023-02-01T16:06:00;98580.53;;;23.23;32.59
77588;BME280;66745;49.716;17.158;2023-02-01T16:09:11;98579.47;;;23.26;32.52
77588;BME280;66745;49.716;17.158;2023-02-01T16:15:27;98588.09;;;23.28;32.40
77588;BME280;66745;49.716;17.158;2023-02-01T16:18:29;98586.03;;;23.29;32.60
77588;BME280;66745;49.716;17.158;2023-02-01T16:21:30;98590.38;;;23.30;32.59
77588;BME280;66745;49.716;17.158;2023-02-01T16:24:30;98587.78;;;23.32;32.73
77588;BME280;66745;49.716;17.158;2023-02-01T16:27:32;98592.88;;;23.33;32.51
77588;BME280;66745;49.716;17.158;2023-02-01T16:30:32;98591.03;;;23.36;33.03
77588;BME280;66745;49.716;17.158;2023-02-01T16:33:36;98586.72;;;23.35;32.26
77588;BME280;66745;49.716;17.158;2023-02-01T16:36:36;98593.31;;;23.37;32.33
77588;BME280;66745;49.716;17.158;2023-02-01T16:39:39;98587.97;;;23.39;32.53
77588;BME280;66745;49.716;17.158;2023-02-01T16:42:39;98584.41;;;23.39;32.35
77588;BME280;66745;49.716;17.158;2023-02-01T16:45:39;98589.47;;;23.40;32.28
77588;BME280;66745;49.716;17.158;2023-02-01T16:48:40;98584.63;;;23.41;32.56
77588;BME280;66745;49.716;17.158;2023-02-01T16:51:41;98597.34;;;23.42;32.23
77588;BME280;66745;49.716;17.158;2023-02-01T16:54:42;98587.50;;;21.88;25.25
77588;BME280;66745;49.716;17.158;2023-02-01T16:57:43;98591.25;;;20.79;29.91
77588;BME280;66745;49.716;17.158;2023-02-01T17:00:43;98586.94;;;21.24;34.51
77588;BME280;66745;49.716;17.158;2023-02-01T17:03:44;98585.78;;;21.74;33.93
77588;BME280;66745;49.716;17.158;2023-02-01T17:06:45;98584.41;;;22.15;34.06
77588;BME280;66745;49.716;17.158;2023-02-01T17:09:48;98586.41;;;22.45;34.09
77588;BME280;66745;49.716;17.158;2023-02-01T17:12:49;98596.28;;;22.70;34.58
77588;BME280;66745;49.716;17.158;2023-02-01T17:15:51;98597.38;;;22.86;35.08
77588;BME280;66745;49.716;17.158;2023-02-01T17:18:56;98590.84;;;22.96;35.37
77588;BME280;66745;49.716;17.158;2023-02-01T17:21:57;98587.66;;;23.05;35.64
77588;BME280;66745;49.716;17.158;2023-02-01T17:24:58;98587.81;;;23.13;35.64
77588;BME280;66745;49.716;17.158;2023-02-01T17:27:59;98580.81;;;23.19;35.25
77588;BME280;66745;49.716;17.158;2023-02-01T17:30:59;98573.09;;;23.25;34.73
77588;BME280;66745;49.716;17.158;2023-02-01T17:34:00;98574.72;;;23.02;31.98
77588;BME280;66745;49.716;17.158;2023-02-01T17:37:01;98570.94;;;23.00;35.27
77588;BME280;66745;49.716;17.158;2023-02-01T17:40:01;98570.75;;;23.11;35.83
77588;BME280;66745;49.716;17.158;2023-02-01T17:43:01;98567.88;;;23.16;36.16
77588;BME280;66745;49.716;17.158;2023-02-01T17:46:09;98572.88;;;23.23;35.79
77588;BME280;66745;49.716;17.158;2023-02-01T17:49:11;98576.88;;;23.28;36.21
77588;BME280;66745;49.716;17.158;2023-02-01T17:52:15;98562.56;;;23.32;36.21
77588;BME280;66745;49.716;17.158;2023-02-01T17:55:17;98577.53;;;23.34;36.69
77588;BME280;66745;49.716;17.158;2023-02-01T17:58:20;98580.03;;;23.38;36.75
77588;BME280;66745;49.716;17.158;2023-02-01T18:01:22;98578.78;;;23.39;36.41
77588;BME280;66745;49.716;17.158;2023-02-01T18:04:22;98575.44;;;23.40;36.97
77588;BME280;66745;49.716;17.158;2023-02-01T18:07:22;98570.84;;;23.43;36.35
77588;BME280;66745;49.716;17.158;2023-02-01T18:10:23;98565.22;;;23.43;36.82
77588;BME280;66745;49.716;17.158;2023-02-01T18:13:23;98563.41;;;23.45;36.17